Time;durP1;ratioP1;P1;durP2;ratioP2;P2;SDS_P1;SDS_P2;PMS_P1;PMS_P2;Temp;Humidity;BMP_temperature;BMP_pressure;BME280_temperature;BME280_humidity;BME280_pressure;Samples;Min_cycle;Max_cycle;Signal;HPM_P1;HPM_P2
2023/07/19 00:00:17;;;;;;;13.35;7.82;;;29.60;79.50;;;;;;5079223;28;20073;-77
2023/07/19 00:02:46;;;;;;;11.45;7.40;;;29.40;79.50;;;;;;5074102;28;20017;-77
2023/07/19 00:05:12;;;;;;;11.35;8.00;;;29.40;79.70;;;;;;5088093;28;20035;-77
2023/07/19 00:07:38;;;;;;;11.30;7.82;;;29.40;79.80;;;;;;5090231;28;20020;-78
2023/07/19 00:10:05;;;;;;;15.43;7.57;;;29.30;79.80;;;;;;5095103;28;20028;-78
2023/07/19 00:12:32;;;;;;;13.23;7.45;;;29.30;79.70;;;;;;5083400;28;20039;-77
2023/07/19 00:14:58;;;;;;;;;;;29.30;80.00;;;;;;5087731;28;20035;-77
2023/07/19 00:17:23;;;;;;;11.73;7.07;;;29.20;79.40;;;;;;5089843;28;20290;-77
2023/07/19 00:19:49;;;;;;;10.03;6.67;;;29.20;79.50;;;;;;5082509;28;20096;-77
2023/07/19 00:22:15;;;;;;;9.27;5.90;;;29.10;79.30;;;;;;5085675;28;20282;-77
2023/07/19 00:24:41;;;;;;;11.43;6.97;;;29.10;79.40;;;;;;5091130;28;20265;-76
2023/07/19 00:27:07;;;;;;;11.20;6.65;;;29.00;79.40;;;;;;5062638;28;20025;-77
2023/07/19 00:29:33;;;;;;;9.35;6.60;;;29.00;79.60;;;;;;5079214;28;20025;-77
2023/07/19 00:31:59;;;;;;;8.10;6.10;;;28.90;79.20;;;;;;5079701;28;20036;-77
2023/07/19 00:34:25;;;;;;;14.48;7.45;;;28.90;79.20;;;;;;5078738;28;20032;-77
2023/07/19 00:36:51;;;;;;;8.77;5.07;;;28.90;79.20;;;;;;5076984;28;20020;-77
2023/07/19 00:39:17;;;;;;;8.60;5.13;;;28.90;79.10;;;;;;5085405;28;20115;-78
2023/07/19 00:41:42;;;;;;;13.03;6.00;;;29.00;79.10;;;;;;5082754;28;20073;-78
2023/07/19 00:44:08;;;;;;;8.43;6.40;;;28.90;78.50;;;;;;5088741;28;20316;-78
2023/07/19 00:46:34;;;;;;;8.57;6.53;;;29.00;78.60;;;;;;5083784;28;20111;-78
2023/07/19 00:49:01;;;;;;;10.98;6.40;;;28.90;78.30;;;;;;5074067;28;20614;-78
2023/07/19 00:51:26;;;;;;;10.88;5.32;;;28.90;78.60;;;;;;5079859;28;20066;-78
2023/07/19 00:53:53;;;;;;;16.20;5.93;;;28.90;78.60;;;;;;5089923;28;20490;-78
2023/07/19 00:56:20;;;;;;;9.93;5.55;;;28.90;78.50;;;;;;5075802;28;20278;-78
2023/07/19 00:58:49;;;;;;;7.88;5.57;;;28.90;78.20;;;;;;5082945;28;20029;-78
2023/07/19 01:01:15;;;;;;;7.88;5.15;;;28.90;78.10;;;;;;5057189;28;20043;-78
2023/07/19 01:03:41;;;;;;;10.45;5.10;;;28.90;77.90;;;;;;5084071;28;20103;-78
2023/07/19 01:06:07;;;;;;;9.95;5.78;;;28.90;77.80;;;;;;5077601;28;20052;-78
2023/07/19 01:08:33;;;;;;;7.38;4.80;;;28.90;77.60;;;;;;5079604;28;20043;-78
2023/07/19 01:10:59;;;;;;;8.38;4.72;;;28.90;77.50;;;;;;5069949;28;20028;-78
2023/07/19 01:13:25;;;;;;;5.63;4.65;;;28.90;77.60;;;;;;5071850;28;20059;-78
2023/07/19 01:15:51;;;;;;;7.45;5.20;;;28.90;77.50;;;;;;5077413;28;20479;-78
2023/07/19 01:18:20;;;;;;;8.70;5.03;;;28.90;77.50;;;;;;5086054;28;20028;-78
2023/07/19 01:20:46;;;;;;;7.90;5.05;;;28.90;77.30;;;;;;5086808;28;20274;-77
2023/07/19 01:23:12;;;;;;;5.00;4.38;;;28.90;77.40;;;;;;5075127;28;20111;-77
2023/07/19 01:25:38;;;;;;;10.60;4.85;;;28.90;77.10;;;;;;5079426;28;20016;-77
2023/07/19 01:28:05;;;;;;;11.90;5.70;;;28.90;76.90;;;;;;5090325;28;20026;-78
2023/07/19 01:30:31;;;;;;;12.75;5.15;;;28.90;76.90;;;;;;5081434;28;20114;-78
2023/07/19 01:32:57;;;;;;;9.70;5.47;;;28.90;77.00;;;;;;5076046;28;20060;-78
2023/07/19 01:35:23;;;;;;;13.67;5.73;;;28.90;77.20;;;;;;5083300;28;20276;-78
2023/07/19 01:37:49;;;;;;;12.85;5.32;;;28.80;77.10;;;;;;5091766;28;20016;-78
2023/07/19 01:40:15;;;;;;;9.57;4.80;;;28.80;76.90;;;;;;5083652;28;20037;-78
2023/07/19 01:42:41;;;;;;;10.18;5.00;;;28.80;76.90;;;;;;5057030;28;20017;-78
2023/07/19 01:45:07;;;;;;;8.15;4.80;;;28.70;77.00;;;;;;5055467;28;20402;-78
2023/07/19 01:47:34;;;;;;;7.82;4.05;;;28.60;77.20;;;;;;5072612;28;20020;-77
2023/07/19 01:50:00;;;;;;;6.85;5.75;;;28.50;77.40;;;;;;5072825;28;20035;-77
2023/07/19 01:52:26;;;;;;;11.48;6.25;;;28.50;78.00;;;;;;5072052;28;20043;-77
2023/07/19 01:54:52;;;;;;;7.70;6.03;;;28.40;78.40;;;;;;5053898;28;20042;-77
2023/07/19 01:57:18;;;;;;;9.00;5.30;;;28.40;78.90;;;;;;5054283;28;20119;-78
2023/07/19 01:59:44;;;;;;;13.50;7.10;;;28.30;79.40;;;;;;5053791;28;20058;-77
2023/07/19 02:02:09;;;;;;;11.87;7.23;;;28.20;80.40;;;;;;5074167;28;20038;-78
2023/07/19 02:04:35;;;;;;;11.37;6.37;;;28.00;81.40;;;;;;5079297;28;20768;-78
2023/07/19 02:07:02;;;;;;;12.40;7.05;;;27.90;81.80;;;;;;5091362;28;20391;-78
2023/07/19 02:09:28;;;;;;;9.63;6.63;;;28.00;82.40;;;;;;5082753;28;20028;-78
2023/07/19 02:11:54;;;;;;;12.23;7.20;;;27.90;82.70;;;;;;5089028;28;20036;-78
2023/07/19 02:14:20;;;;;;;11.00;7.10;;;27.90;83.70;;;;;;5077230;28;20282;-78
2023/07/19 02:16:45;;;;;;;14.70;8.80;;;27.90;83.30;;;;;;5086756;28;20032;-78
2023/07/19 02:19:11;;;;;;;17.35;7.03;;;27.80;83.30;;;;;;5060764;28;20029;-78
2023/07/19 02:21:37;;;;;;;18.03;7.40;;;27.80;83.80;;;;;;5065552;28;20376;-78
2023/07/19 02:24:03;;;;;;;9.33;7.33;;;27.80;83.90;;;;;;5083933;28;20467;-78
2023/07/19 02:26:29;;;;;;;11.50;7.25;;;27.80;84.10;;;;;;5062051;28;20025;-78
2023/07/19 02:28:59;;;;;;;10.95;7.50;;;27.80;84.10;;;;;;5077312;28;20040;-78
2023/07/19 02:31:25;;;;;;;13.85;7.63;;;27.90;84.40;;;;;;5076073;28;20043;-79
2023/07/19 02:33:51;;;;;;;11.90;7.30;;;27.90;84.60;;;;;;5085364;28;20051;-78
2023/07/19 02:36:17;;;;;;;14.07;9.37;;;27.90;84.50;;;;;;5093724;28;20144;-78
2023/07/19 02:38:44;;;;;;;12.40;7.80;;;27.90;84.80;;;;;;5076058;28;20028;-78
2023/07/19 02:41:10;;;;;;;11.13;7.97;;;27.80;85.10;;;;;;5087806;28;20270;-78
2023/07/19 02:43:36;;;;;;;11.50;7.97;;;27.80;85.30;;;;;;5087074;28;20081;-78
2023/07/19 02:46:02;;;;;;;15.10;9.00;;;27.80;85.20;;;;;;5072317;28;20020;-78
2023/07/19 02:48:27;;;;;;;9.83;7.53;;;27.80;85.20;;;;;;5092851;28;20039;-78
2023/07/19 02:50:53;;;;;;;12.60;9.07;;;27.80;85.30;;;;;;5087119;28;20293;-78
2023/07/19 02:53:19;;;;;;;10.38;9.20;;;27.80;85.50;;;;;;5083292;28;20024;-78
2023/07/19 02:55:46;;;;;;;8.75;7.85;;;27.70;85.90;;;;;;5083718;28;20033;-77
2023/07/19 02:58:13;;;;;;;13.57;10.05;;;27.70;86.40;;;;;;5085395;28;20032;-78
2023/07/19 03:00:40;;;;;;;11.27;9.80;;;27.70;86.50;;;;;;5076360;28;20016;-78
2023/07/19 03:03:07;;;;;;;17.95;10.68;;;27.70;86.90;;;;;;5063429;28;20083;-77
2023/07/19 03:05:34;;;;;;;13.25;9.93;;;27.70;87.20;;;;;;5085096;28;20036;-78
2023/07/19 03:08:01;;;;;;;15.43;10.07;;;27.70;86.70;;;;;;5081756;28;20027;-78
2023/07/19 03:10:27;;;;;;;11.88;9.35;;;27.70;86.70;;;;;;5088435;28;20028;-78
2023/07/19 03:12:53;;;;;;;17.75;9.60;;;27.70;86.70;;;;;;5080306;28;20111;-78
2023/07/19 03:15:19;;;;;;;15.52;10.23;;;27.70;86.70;;;;;;5061043;28;20055;-78
2023/07/19 03:17:45;;;;;;;13.68;10.20;;;27.70;87.50;;;;;;5076792;28;20560;-78
2023/07/19 03:20:11;;;;;;;15.43;9.82;;;27.60;87.20;;;;;;5075257;28;20055;-78
2023/07/19 03:22:37;;;;;;;16.33;11.02;;;27.60;87.20;;;;;;5076348;28;20593;-78
2023/07/19 03:25:05;;;;;;;15.20;10.93;;;27.60;87.70;;;;;;5081452;28;20165;-78
2023/07/19 03:27:31;;;;;;;12.65;10.73;;;27.60;87.90;;;;;;5091920;28;20091;-78
2023/07/19 03:29:57;;;;;;;16.15;11.95;;;27.60;88.50;;;;;;5087363;28;20558;-78
2023/07/19 03:32:23;;;;;;;15.40;11.32;;;27.60;88.60;;;;;;5091797;28;20066;-78
2023/07/19 03:34:49;;;;;;;17.53;11.67;;;27.60;88.60;;;;;;5067391;28;20123;-78
2023/07/19 03:37:15;;;;;;;14.03;11.47;;;27.60;88.70;;;;;;5092390;28;20036;-79
2023/07/19 03:39:41;;;;;;;14.07;11.48;;;27.60;88.70;;;;;;5068288;28;20286;-78
2023/07/19 03:42:08;;;;;;;17.10;12.20;;;27.70;89.00;;;;;;5068981;28;20024;-78
2023/07/19 03:44:34;;;;;;;15.93;11.73;;;27.60;88.70;;;;;;5091552;28;20146;-78
2023/07/19 03:47:00;;;;;;;20.40;14.00;;;27.60;89.30;;;;;;5080818;28;20025;-78
2023/07/19 03:49:26;;;;;;;16.23;11.80;;;27.50;89.30;;;;;;5081453;28;20028;-80
2023/07/19 03:51:52;;;;;;;17.43;12.53;;;27.50;89.40;;;;;;5100662;28;20046;-80
2023/07/19 03:54:19;;;;;;;;;;;27.50;89.80;;;;;;5081374;28;20500;-78
2023/07/19 03:56:45;;;;;;;20.98;13.23;;;27.50;89.40;;;;;;5087592;28;19916;-77
2023/07/19 03:59:11;;;;;;;19.13;13.90;;;27.40;90.30;;;;;;5060313;28;20044;-76
2023/07/19 04:01:37;;;;;;;17.92;12.35;;;27.40;90.40;;;;;;5072488;28;20454;-77
2023/07/19 04:04:03;;;;;;;15.27;12.50;;;27.40;90.70;;;;;;5073686;28;20056;-76
2023/07/19 04:06:30;;;;;;;14.50;12.88;;;27.30;90.80;;;;;;5072642;28;20040;-77
2023/07/19 04:08:56;;;;;;;20.98;14.27;;;27.30;91.00;;;;;;5073837;28;20572;-77
2023/07/19 04:11:23;;;;;;;18.07;14.20;;;27.30;91.10;;;;;;5072431;28;20115;-77
2023/07/19 04:13:50;;;;;;;17.27;14.25;;;27.30;91.20;;;;;;5072501;28;20036;-76
2023/07/19 04:16:17;;;;;;;17.50;14.95;;;27.20;91.20;;;;;;5055833;28;20235;-77
2023/07/19 04:18:44;;;;;;;18.35;14.63;;;27.30;91.40;;;;;;5072254;28;20035;-77
2023/07/19 04:21:10;;;;;;;22.63;15.30;;;27.20;91.50;;;;;;5055683;28;20024;-77
2023/07/19 04:23:37;;;;;;;17.42;13.63;;;27.30;91.60;;;;;;5072343;28;20025;-77
2023/07/19 04:26:05;;;;;;;18.67;15.45;;;27.30;91.40;;;;;;5072453;28;20025;-77
2023/07/19 04:28:31;;;;;;;18.77;15.70;;;27.30;91.60;;;;;;5055642;28;20028;-77
2023/07/19 04:30:57;;;;;;;20.58;15.27;;;27.20;91.60;;;;;;5072069;28;20118;-77
2023/07/19 04:33:23;;;;;;;21.57;15.40;;;27.20;91.80;;;;;;5072129;28;20048;-76
2023/07/19 04:35:50;;;;;;;22.07;15.80;;;27.20;92.10;;;;;;5054962;28;20270;-76
2023/07/19 04:38:17;;;;;;;19.90;15.38;;;27.10;92.30;;;;;;5071866;28;20263;-76
2023/07/19 04:40:43;;;;;;;19.37;14.53;;;27.10;92.20;;;;;;5071855;28;20028;-76
2023/07/19 04:43:09;;;;;;;;;;;27.10;92.30;;;;;;5072475;28;20028;-77
2023/07/19 04:45:36;;;;;;;18.77;14.52;;;27.20;91.70;;;;;;5071979;28;19909;-77
2023/07/19 04:48:03;;;;;;;16.90;14.73;;;27.10;92.30;;;;;;5071798;28;20403;-77
2023/07/19 04:50:29;;;;;;;22.25;16.20;;;27.10;92.60;;;;;;5071662;28;20312;-76
2023/07/19 04:52:55;;;;;;;22.40;16.05;;;27.20;92.90;;;;;;5071804;28;20025;-77
2023/07/19 04:55:21;;;;;;;19.10;15.53;;;27.20;93.00;;;;;;5071791;28;20020;-77
2023/07/19 04:57:49;;;;;;;22.10;15.77;;;27.20;93.10;;;;;;5071646;28;20051;-77
2023/07/19 05:00:15;;;;;;;20.37;16.17;;;27.30;93.20;;;;;;5054831;28;20550;-76
2023/07/19 05:02:41;;;;;;;17.70;15.23;;;27.30;93.20;;;;;;5054843;28;20483;-76
2023/07/19 05:05:09;;;;;;;20.67;16.42;;;27.40;93.10;;;;;;5072737;28;20020;-77
2023/07/19 05:07:36;;;;;;;23.13;17.92;;;27.40;93.20;;;;;;5071410;28;20514;-77
2023/07/19 05:10:04;;;;;;;21.60;18.02;;;27.50;93.10;;;;;;5071288;28;20499;-77
2023/07/19 05:12:31;;;;;;;20.80;16.35;;;27.50;93.00;;;;;;5071365;28;20054;-77
2023/07/19 05:14:57;;;;;;;22.50;17.80;;;27.60;93.00;;;;;;5071400;28;20033;-77
2023/07/19 05:17:23;;;;;;;23.80;17.80;;;27.60;93.10;;;;;;5071042;28;20113;-77
2023/07/19 05:19:49;;;;;;;28.67;20.65;;;27.70;93.50;;;;;;5071069;28;20032;-77
2023/07/19 05:22:16;;;;;;;23.02;17.38;;;27.70;93.70;;;;;;5071245;28;20039;-76
2023/07/19 05:24:42;;;;;;;23.50;18.35;;;27.60;93.60;;;;;;5071173;28;20043;-77
2023/07/19 05:27:08;;;;;;;25.98;18.63;;;27.70;93.70;;;;;;5071088;28;20142;-77
2023/07/19 05:29:34;;;;;;;35.53;18.87;;;27.80;93.50;;;;;;5070891;28;20042;-77
2023/07/19 05:32:00;;;;;;;29.38;18.40;;;27.80;93.40;;;;;;5072295;28;20089;-77
2023/07/19 05:34:26;;;;;;;22.53;18.50;;;27.90;93.40;;;;;;5054395;28;20037;-77
2023/07/19 05:36:52;;;;;;;24.17;19.03;;;28.00;93.00;;;;;;5070858;28;20024;-77
2023/07/19 05:39:17;;;;;;;25.67;19.75;;;28.00;92.80;;;;;;5070696;28;20564;-77
2023/07/19 05:41:43;;;;;;;26.70;20.33;;;28.10;93.00;;;;;;5070967;28;20033;-77
2023/07/19 05:44:09;;;;;;;28.67;20.40;;;28.10;92.90;;;;;;5072136;28;20028;-77
2023/07/19 05:46:38;;;;;;;25.83;19.93;;;28.10;93.20;;;;;;5071198;28;20025;-77
2023/07/19 05:49:04;;;;;;;21.60;18.40;;;28.20;93.10;;;;;;5070836;28;20116;-77
2023/07/19 05:51:30;;;;;;;26.20;18.20;;;28.20;93.10;;;;;;5071898;28;20056;-77
2023/07/19 05:53:55;;;;;;;23.20;20.37;;;28.20;93.20;;;;;;5053983;28;20035;-77
2023/07/19 05:56:22;;;;;;;25.53;17.83;;;28.30;93.20;;;;;;5054029;28;20279;-77
2023/07/19 05:58:48;;;;;;;26.35;18.60;;;28.30;93.10;;;;;;5071706;28;20035;-78
2023/07/19 06:01:17;;;;;;;26.95;19.25;;;28.30;93.20;;;;;;5071813;28;20025;-77
2023/07/19 06:03:46;;;;;;;31.58;17.50;;;28.40;93.30;;;;;;5053916;28;20031;-77
2023/07/19 06:06:14;;;;;;;25.05;18.70;;;28.40;92.50;;;;;;5070589;28;20032;-77
2023/07/19 06:08:40;;;;;;;25.45;19.02;;;28.40;93.20;;;;;;5070387;28;20494;-77
2023/07/19 06:11:06;;;;;;;26.08;20.48;;;28.50;93.40;;;;;;5070207;28;20036;-77
2023/07/19 06:13:33;;;;;;;28.33;19.15;;;28.50;93.40;;;;;;5053794;28;20040;-77
2023/07/19 06:15:58;;;;;;;26.73;19.13;;;28.50;93.60;;;;;;5070434;28;20028;-77
2023/07/19 06:18:24;;;;;;;22.03;19.33;;;28.50;93.70;;;;;;5071462;28;20037;-77
2023/07/19 06:20:50;;;;;;;28.83;19.57;;;28.60;93.70;;;;;;5070380;28;20270;-77
2023/07/19 06:23:16;;;;;;;20.40;17.35;;;28.60;94.00;;;;;;5071603;28;20418;-77
2023/07/19 06:25:45;;;;;;;22.10;18.63;;;28.60;94.10;;;;;;5071631;28;20028;-78
2023/07/19 06:28:10;;;;;;;19.90;16.90;;;28.70;94.20;;;;;;5071482;28;20629;-77
2023/07/19 06:30:36;;;;;;;26.35;15.23;;;28.70;94.10;;;;;;5053334;28;20037;-77
2023/07/19 06:33:02;;;;;;;18.73;15.27;;;28.70;93.70;;;;;;5053573;28;20035;-77
2023/07/19 06:35:28;;;;;;;20.70;16.23;;;28.80;94.00;;;;;;5076116;28;20024;-77
2023/07/19 06:37:54;;;;;;;21.25;15.38;;;28.80;94.20;;;;;;5056877;28;20161;-76
2023/07/19 06:40:20;;;;;;;20.33;16.17;;;28.70;94.70;;;;;;5056852;28;20036;-77
2023/07/19 06:42:46;;;;;;;21.73;16.15;;;28.80;94.70;;;;;;5078392;28;20025;-77
2023/07/19 06:45:12;;;;;;;18.65;15.18;;;28.90;94.30;;;;;;5076466;28;20024;-76
2023/07/19 06:47:37;;;;;;;18.17;13.50;;;29.10;94.00;;;;;;5077800;28;20371;-77
2023/07/19 06:50:04;;;;;;;18.93;12.90;;;29.20;93.60;;;;;;5075469;28;20319;-76
2023/07/19 06:52:29;;;;;;;23.65;12.77;;;29.30;93.20;;;;;;5071784;28;20270;-76
2023/07/19 06:54:56;;;;;;;15.00;11.87;;;29.40;93.00;;;;;;5071644;28;20059;-77
2023/07/19 06:57:22;;;;;;;19.50;12.13;;;29.50;92.90;;;;;;5073059;28;20094;-77
2023/07/19 06:59:51;;;;;;;18.05;11.15;;;29.60;92.60;;;;;;5075973;28;20040;-77
2023/07/19 07:02:20;;;;;;;17.45;10.50;;;29.80;92.30;;;;;;5080177;28;20032;-77
2023/07/19 07:04:46;;;;;;;18.30;12.38;;;29.80;92.10;;;;;;5063691;28;20037;-78
2023/07/19 07:07:14;;;;;;;15.73;12.50;;;29.80;92.20;;;;;;5079751;28;20298;-77
2023/07/19 07:09:42;;;;;;;15.25;11.55;;;29.80;92.30;;;;;;5063560;28;20032;-77
2023/07/19 07:12:09;;;;;;;17.60;11.15;;;29.80;92.20;;;;;;5081184;28;20507;-79
2023/07/19 07:14:35;;;;;;;17.80;10.43;;;29.90;92.20;;;;;;5080245;28;20032;-81
2023/07/19 07:17:01;;;;;;;13.30;11.87;;;29.90;91.90;;;;;;5074336;28;20037;-81
2023/07/19 07:19:27;;;;;;;15.70;11.23;;;29.90;92.00;;;;;;5075057;28;20032;-80
2023/07/19 07:21:52;;;;;;;17.80;10.75;;;29.90;91.80;;;;;;5075219;28;20267;-80
2023/07/19 07:24:18;;;;;;;15.17;10.30;;;30.00;91.80;;;;;;5074580;28;20051;-80
2023/07/19 07:26:44;;;;;;;15.37;11.10;;;30.00;91.40;;;;;;5076215;28;20268;-81
2023/07/19 07:29:10;;;;;;;21.23;11.02;;;30.00;91.30;;;;;;5074393;28;20040;-80
2023/07/19 07:31:36;;;;;;;22.55;10.88;;;30.00;91.50;;;;;;5057864;28;20032;-81
2023/07/19 07:34:01;;;;;;;21.60;10.57;;;30.00;91.50;;;;;;5075855;28;20028;-80
2023/07/19 07:36:27;;;;;;;14.77;11.68;;;30.00;91.80;;;;;;5080367;28;20775;-79
2023/07/19 07:38:53;;;;;;;15.20;10.70;;;30.00;91.70;;;;;;5078600;28;20032;-79
2023/07/19 07:41:19;;;;;;;21.13;11.23;;;30.20;91.40;;;;;;5080169;28;20391;-78
2023/07/19 07:43:45;;;;;;;20.17;11.65;;;30.20;91.30;;;;;;5079327;28;20027;-78
2023/07/19 07:46:11;;;;;;;16.77;10.97;;;30.20;91.40;;;;;;5080156;28;20028;-79
2023/07/19 07:48:36;;;;;;;16.90;12.02;;;30.10;91.40;;;;;;5078877;28;20426;-79
2023/07/19 07:51:02;;;;;;;12.93;10.80;;;30.20;91.70;;;;;;5081603;28;20089;-79
2023/07/19 07:53:28;;;;;;;13.98;11.02;;;30.10;91.90;;;;;;5081479;28;20028;-79
2023/07/19 07:55:54;;;;;;;21.58;11.65;;;30.10;92.10;;;;;;5080246;28;20043;-79
2023/07/19 07:58:20;;;;;;;23.00;11.10;;;30.10;91.90;;;;;;5078980;28;20055;-79
2023/07/19 08:00:46;;;;;;;15.00;11.23;;;30.10;91.80;;;;;;5080544;28;20035;-79
2023/07/19 08:03:13;;;;;;;16.70;12.33;;;30.20;91.80;;;;;;5080273;28;20035;-79
2023/07/19 08:05:40;;;;;;;18.92;10.85;;;30.30;91.60;;;;;;5063283;28;20269;-78
2023/07/19 08:08:06;;;;;;;20.45;12.93;;;30.30;91.50;;;;;;5061844;28;20032;-79
2023/07/19 08:10:39;;;;;;;16.13;11.23;;;30.20;91.50;;;;;;5077805;28;20025;-79
2023/07/19 08:13:08;;;;;;;18.50;12.18;;;30.20;91.60;;;;;;5062490;28;20047;-80
2023/07/19 08:15:35;;;;;;;20.85;10.80;;;30.20;91.60;;;;;;5079185;28;20025;-79
2023/07/19 08:18:00;;;;;;;16.70;10.82;;;30.30;91.60;;;;;;5080327;28;20032;-79
2023/07/19 08:20:27;;;;;;;21.70;11.88;;;30.30;91.60;;;;;;5061714;28;20036;-79
2023/07/19 08:22:53;;;;;;;18.15;11.73;;;30.50;91.80;;;;;;5061891;28;20086;-78
2023/07/19 08:25:19;;;;;;;20.70;11.95;;;30.60;91.70;;;;;;5080319;28;20024;-80
2023/07/19 08:27:45;;;;;;;18.02;13.02;;;30.70;91.60;;;;;;5076895;28;20032;-80
2023/07/19 08:30:15;;;;;;;20.98;11.88;;;30.70;91.40;;;;;;5076874;28;20033;-80
2023/07/19 08:32:50;;;;;;;18.23;13.82;;;30.60;91.30;;;;;;5076565;28;20062;-80
2023/07/19 08:35:17;;;;;;;15.93;11.20;;;30.60;91.20;;;;;;5075154;28;20399;-79
2023/07/19 08:37:44;;;;;;;14.35;11.20;;;30.60;91.40;;;;;;5060091;28;20415;-79
2023/07/19 08:40:12;;;;;;;18.98;11.52;;;30.80;91.20;;;;;;5074467;28;20036;-80
2023/07/19 08:42:39;;;;;;;18.48;11.32;;;30.80;90.70;;;;;;5076275;28;20026;-80
2023/07/19 08:45:10;;;;;;;14.25;11.38;;;30.80;90.70;;;;;;5075766;28;20505;-80
2023/07/19 08:47:40;;;;;;;19.83;11.57;;;30.80;90.40;;;;;;5075316;28;20033;-79
2023/07/19 08:50:07;;;;;;;20.60;12.48;;;30.90;90.60;;;;;;5074966;28;20455;-79
2023/07/19 08:52:33;;;;;;;26.60;11.10;;;31.00;90.30;;;;;;5076704;28;20029;-79
2023/07/19 08:55:00;;;;;;;19.55;12.13;;;31.00;90.50;;;;;;5074910;28;20127;-79
2023/07/19 08:57:26;;;;;;;;;;;31.20;90.80;;;;;;5077935;28;20032;-80
2023/07/19 08:59:52;;;;;;;19.60;11.68;;;31.30;90.30;;;;;;5075837;28;19912;-79
2023/07/19 09:02:18;;;;;;;14.40;12.55;;;31.40;90.10;;;;;;5075434;28;20290;-79
2023/07/19 09:05:13;;;;;;;18.95;12.10;;;31.30;90.10;;;;;;5075649;28;20059;-79
2023/07/19 09:07:40;;;;;;;27.23;13.20;;;31.30;90.00;;;;;;5062511;28;20075;-79
2023/07/19 09:10:07;;;;;;;19.60;13.52;;;31.40;90.30;;;;;;5077205;28;20491;-79
2023/07/19 09:12:39;;;;;;;16.00;13.23;;;31.40;90.00;;;;;;5075733;28;20119;-79
2023/07/19 09:15:09;;;;;;;16.95;11.98;;;31.40;90.00;;;;;;5075582;28;20039;-79
2023/07/19 09:17:45;;;;;;;16.88;12.93;;;31.50;90.40;;;;;;5075201;28;20491;-80
2023/07/19 09:20:12;;;;;;;19.45;12.70;;;31.60;89.70;;;;;;5075044;28;20032;-79
2023/07/19 09:22:39;;;;;;;15.02;13.07;;;31.60;89.10;;;;;;5058154;28;20032;-80
2023/07/19 09:25:05;;;;;;;14.80;11.45;;;31.60;88.70;;;;;;5058387;28;20434;-80
2023/07/19 09:27:32;;;;;;;14.77;10.98;;;31.60;88.90;;;;;;5057646;28;20032;-80
2023/07/19 09:29:59;;;;;;;14.55;11.65;;;31.80;88.60;;;;;;5073553;28;20028;-80
2023/07/19 09:32:25;;;;;;;18.45;11.60;;;31.90;88.40;;;;;;5074644;28;20090;-79
2023/07/19 09:34:55;;;;;;;19.23;12.63;;;32.00;87.30;;;;;;5075984;28;20025;-79
2023/07/19 09:37:25;;;;;;;16.67;13.70;;;32.00;86.60;;;;;;5076487;28;20035;-79
2023/07/19 09:39:52;;;;;;;14.80;13.20;;;31.90;86.80;;;;;;5076145;28;20035;-79
2023/07/19 09:42:19;;;;;;;17.25;12.85;;;31.80;87.00;;;;;;5076478;28;20035;-80
2023/07/19 09:44:48;;;;;;;15.07;12.35;;;31.80;86.90;;;;;;5075793;28;20025;-80
2023/07/19 09:47:15;;;;;;;17.63;14.30;;;31.80;87.00;;;;;;5075942;28;20031;-80
2023/07/19 09:49:43;;;;;;;17.33;13.55;;;31.70;87.40;;;;;;5077199;28;20088;-80
2023/07/19 09:52:16;;;;;;;15.77;12.60;;;31.80;87.20;;;;;;5081050;28;20029;-79
2023/07/19 09:54:43;;;;;;;16.13;11.68;;;31.90;86.40;;;;;;5080645;28;20036;-79
2023/07/19 09:57:10;;;;;;;13.75;11.48;;;32.00;86.30;;;;;;5076761;28;20024;-80
2023/07/19 09:59:43;;;;;;;17.15;12.68;;;32.00;85.70;;;;;;5075260;28;20399;-79
2023/07/19 10:02:13;;;;;;;18.33;11.27;;;32.00;85.70;;;;;;5057787;28;20020;-79
2023/07/19 10:04:42;;;;;;;16.13;12.18;;;32.10;85.40;;;;;;5059231;28;20395;-79
2023/07/19 10:07:12;;;;;;;19.58;11.40;;;32.20;85.40;;;;;;5075956;28;20502;-79
2023/07/19 10:09:43;;;;;;;12.98;9.80;;;32.30;84.80;;;;;;5073900;28;20510;-79
2023/07/19 10:12:17;;;;;;;14.50;11.10;;;32.40;84.70;;;;;;5074863;28;20038;-79
2023/07/19 10:15:06;;;;;;;15.88;10.65;;;32.60;84.50;;;;;;5073894;28;20430;-76
2023/07/19 10:17:41;;;;;;;20.90;13.25;;;32.70;82.70;;;;;;5075221;28;20032;-83
2023/07/19 10:20:12;;;;;;;14.57;12.50;;;32.80;83.60;;;;;;5070617;28;20032;-83
2023/07/19 10:22:57;;;;;;;22.20;11.40;;;32.70;82.90;;;;;;5071178;28;20111;-82
2023/07/19 10:25:32;;;;;;;16.90;11.50;;;32.70;83.80;;;;;;5072260;28;20012;-82
2023/07/19 10:28:01;;;;;;;15.30;10.82;;;32.80;84.20;;;;;;5055334;28;20031;-82
2023/07/19 10:30:48;;;;;;;17.15;10.00;;;33.00;83.30;;;;;;5085551;28;20048;-83
2023/07/19 10:33:25;;;;;;;15.82;11.35;;;33.20;81.40;;;;;;5080157;28;20030;-82
2023/07/19 10:35:56;;;;;;;18.75;12.00;;;33.30;82.70;;;;;;5058769;28;20490;-84
2023/07/19 10:38:28;;;;;;;15.25;11.07;;;33.40;81.80;;;;;;5059560;28;20491;-84
2023/07/19 10:40:54;;;;;;;18.40;10.93;;;33.50;80.70;;;;;;5078150;28;20072;-85
2023/07/19 10:43:21;;;;;;;;;;;33.60;79.90;;;;;;5085368;28;20054;-84
2023/07/19 10:45:46;;;;;;;17.00;9.93;;;33.60;79.70;;;;;;5074572;28;19921;-85
2023/07/19 10:48:12;;;;;;;17.25;9.63;;;33.60;80.30;;;;;;5081217;28;20029;-83
2023/07/19 10:50:41;;;;;;;17.05;10.93;;;33.80;79.70;;;;;;5078873;28;20025;-83
2023/07/19 10:53:07;;;;;;;14.55;11.18;;;33.80;78.30;;;;;;5091779;28;20111;-82
2023/07/19 10:55:33;;;;;;;17.65;10.52;;;33.90;78.80;;;;;;5060171;28;20052;-81
2023/07/19 10:57:59;;;;;;;17.13;10.60;;;33.90;79.40;;;;;;5090092;28;20017;-83
2023/07/19 11:00:25;;;;;;;17.92;10.48;;;33.90;78.90;;;;;;5079109;28;20455;-83
2023/07/19 11:02:54;;;;;;;13.07;9.30;;;33.90;79.30;;;;;;5083291;28;20060;-83
2023/07/19 11:05:20;;;;;;;17.77;11.50;;;34.10;78.60;;;;;;5083409;28;20082;-83
2023/07/19 11:07:49;;;;;;;15.13;8.98;;;34.20;77.00;;;;;;5073698;28;20069;-83
2023/07/19 11:10:15;;;;;;;23.85;10.27;;;34.30;77.40;;;;;;5082467;28;20028;-82
2023/07/19 11:12:41;;;;;;;14.05;9.13;;;34.20;76.00;;;;;;5084452;28;20031;-82
2023/07/19 11:15:08;;;;;;;17.58;10.40;;;34.30;77.60;;;;;;5090299;28;20028;-82
2023/07/19 11:17:38;;;;;;;16.10;9.20;;;34.40;74.80;;;;;;5081515;28;20044;-81
2023/07/19 11:20:05;;;;;;;13.45;10.18;;;34.40;74.80;;;;;;5091238;28;20036;-80
2023/07/19 11:22:31;;;;;;;15.25;8.30;;;34.40;73.80;;;;;;5084046;28;20464;-81
2023/07/19 11:24:57;;;;;;;13.25;9.27;;;34.50;75.70;;;;;;5081356;28;20034;-81
2023/07/19 11:27:34;;;;;;;15.75;8.90;;;34.70;75.60;;;;;;5080376;28;20036;-81
2023/07/19 11:30:00;;;;;;;14.45;9.23;;;34.90;75.10;;;;;;5086763;28;20561;-81
2023/07/19 11:32:25;;;;;;;11.65;9.18;;;35.10;74.50;;;;;;5091137;28;20123;-81
2023/07/19 11:34:54;;;;;;;20.35;8.75;;;35.20;73.90;;;;;;5090581;28;20031;-81
2023/07/19 11:37:26;;;;;;;12.35;7.82;;;35.20;74.00;;;;;;5095523;28;20057;-81
2023/07/19 11:39:54;;;;;;;16.35;8.55;;;35.40;73.60;;;;;;5096439;28;20042;-81
2023/07/19 11:42:39;;;;;;;11.75;8.40;;;35.60;72.80;;;;;;5095073;28;20393;-82
2023/07/19 11:45:15;;;;;;;19.20;7.68;;;35.80;71.70;;;;;;5098604;28;20020;-81
2023/07/19 11:47:42;;;;;;;14.95;8.15;;;35.90;71.30;;;;;;5068434;28;20457;-80
2023/07/19 11:50:09;;;;;;;16.67;8.90;;;35.90;71.00;;;;;;5086577;28;20054;-80
2023/07/19 11:52:55;;;;;;;14.18;8.90;;;36.00;70.80;;;;;;5087588;28;20050;-83
2023/07/19 11:55:22;;;;;;;14.88;8.55;;;36.00;69.20;;;;;;5082160;28;20089;-83
2023/07/19 11:57:51;;;;;;;18.30;8.73;;;36.00;69.60;;;;;;5081060;28;20028;-83
2023/07/19 12:00:20;;;;;;;12.38;8.05;;;36.20;68.90;;;;;;5084667;28;20032;-83
2023/07/19 12:02:47;;;;;;;14.63;9.20;;;36.30;68.60;;;;;;5047365;28;20021;-81
2023/07/19 12:05:18;;;;;;;13.93;9.73;;;36.40;67.70;;;;;;5079855;28;20031;-82
2023/07/19 12:07:45;;;;;;;10.77;8.80;;;36.40;67.00;;;;;;5080575;28;20036;-82
2023/07/19 12:10:12;;;;;;;13.10;8.57;;;36.40;67.60;;;;;;5098804;28;20039;-82
2023/07/19 12:12:38;;;;;;;16.58;8.95;;;36.40;67.20;;;;;;5102314;28;20032;-82
2023/07/19 12:15:05;;;;;;;;;;;36.50;67.60;;;;;;5098770;28;20129;-82
2023/07/19 12:17:33;;;;;;;15.80;8.75;;;36.60;68.00;;;;;;5083747;28;20409;-82
2023/07/19 12:20:00;;;;;;;12.88;8.80;;;36.80;66.00;;;;;;5082270;28;20104;-81
2023/07/19 12:22:29;;;;;;;16.75;9.65;;;36.90;65.00;;;;;;5091060;28;20038;-81
2023/07/19 12:24:56;;;;;;;13.45;8.63;;;36.90;65.10;;;;;;5094150;28;20029;-81
2023/07/19 12:27:22;;;;;;;15.73;9.55;;;36.80;64.80;;;;;;5085740;28;20036;-81
2023/07/19 12:29:48;;;;;;;18.83;8.90;;;36.80;63.90;;;;;;5083106;28;20537;-82
2023/07/19 12:32:14;;;;;;;14.27;9.05;;;36.80;64.20;;;;;;5099245;28;20040;-81